Time;durP1;ratioP1;P1;durP2;ratioP2;P2;SDS_P1;SDS_P2;PMS_P1;PMS_P2;Temp;Humidity;BMP_temperature;BMP_pressure;BME280_temperature;BME280_humidity;BME280_pressure;Samples;Min_cycle;Max_cycle;Signal;HPM_P1;HPM_P2
2021/05/02 00:00:33;;;;;;;45.17;27.63;;;;;;;7.40;92.69;100359.81;5064343;28;20429;-71
2021/05/02 00:03:02;;;;;;;44.08;28.80;;;;;;;7.43;93.03;100362.28;5067395;28;20119;-71
2021/05/02 00:05:31;;;;;;;43.50;28.65;;;;;;;7.32;93.64;100364.56;5063042;28;20124;-72
2021/05/02 00:07:58;;;;;;;49.78;29.70;;;;;;;7.24;93.84;100361.47;5059369;28;20041;-70
2021/05/02 00:10:28;;;;;;;43.95;29.92;;;;;;;7.40;93.01;100359.81;5066655;28;20046;-73
2021/05/02 00:12:56;;;;;;;46.15;29.40;;;;;;;7.45;92.80;100349.94;5022967;28;20533;-71
2021/05/02 00:15:23;;;;;;;45.92;29.25;;;;;;;7.46;92.35;100367.34;5064138;28;20449;-72
2021/05/02 00:17:53;;;;;;;47.22;30.30;;;;;;;7.31;93.59;100355.88;5052073;28;20147;-73
2021/05/02 00:20:21;;;;;;;45.75;30.85;;;;;;;7.30;93.35;100343.72;5030295;28;20112;-71
2021/05/02 00:22:50;;;;;;;49.67;29.23;;;;;;;7.27;93.49;100341.25;5041070;28;20498;-72
2021/05/02 00:25:20;;;;;;;49.30;28.65;;;;;;;7.46;92.70;100337.69;5060824;28;20402;-71
2021/05/02 00:27:46;;;;;;;50.85;33.10;;;;;;;7.41;92.78;100343.16;5044900;28;20113;-73
2021/05/02 00:30:16;;;;;;;45.15;28.98;;;;;;;7.24;93.70;100332.69;5059177;28;20070;-71
2021/05/02 00:32:46;;;;;;;50.15;31.15;;;;;;;7.29;93.52;100331.53;5066757;28;20050;-72
2021/05/02 00:35:17;;;;;;;43.88;29.88;;;;;;;7.23;94.13;100334.47;5060903;28;20092;-72
2021/05/02 00:37:45;;;;;;;46.67;29.08;;;;;;;7.22;94.51;100345.03;5064861;28;20085;-72
2021/05/02 00:40:15;;;;;;;53.25;31.40;;;;;;;7.17;94.11;100337.38;5050590;28;20146;-72
2021/05/02 00:42:48;;;;;;;44.05;29.52;;;;;;;7.26;93.70;100331.69;5062838;28;20047;-72
2021/05/02 00:45:23;;;;;;;50.47;31.90;;;;;;;7.23;94.10;100321.38;5053869;28;20159;-71
2021/05/02 00:47:54;;;;;;;;;;;;;;;7.17;94.38;100315.59;5042528;28;20055;-72
2021/05/02 00:50:27;;;;;;;42.38;28.85;;;;;;;7.19;93.47;100317.22;5071072;28;19920;-71
2021/05/02 00:53:13;;;;;;;50.63;29.90;;;;;;;7.22;94.02;100318.84;5064046;28;20040;-72
2021/05/02 00:55:47;;;;;;;49.92;29.73;;;;;;;7.09;94.58;100313.34;5065035;22;20025;-84
2021/05/02 00:58:30;;;;;;;45.77;28.77;;;;;;;7.10;94.62;100315.03;5041509;28;20042;-83
2021/05/02 01:00:59;;;;;;;47.38;30.20;;;;;;;7.09;94.27;100321.22;5051941;28;20049;-84
2021/05/02 01:03:31;;;;;;;47.30;29.77;;;;;;;7.00;94.85;100321.66;5034753;28;20141;-84
2021/05/02 01:05:59;;;;;;;47.80;29.92;;;;;;;7.06;95.07;100324.81;5050370;28;20052;-83
2021/05/02 01:08:29;;;;;;;49.80;31.13;;;;;;;7.05;94.88;100327.50;5046026;28;20065;-83
2021/05/02 01:10:59;;;;;;;48.75;30.52;;;;;;;6.97;95.13;100325.25;5043040;28;20073;-83
2021/05/02 01:13:26;;;;;;;48.13;30.58;;;;;;;7.01;95.09;100331.19;5010183;28;20060;-83
2021/05/02 01:15:58;;;;;;;49.30;30.10;;;;;;;7.02;95.10;100323.25;5044897;28;20113;-84
2021/05/02 01:18:26;;;;;;;48.15;31.35;;;;;;;6.98;95.28;100329.59;5039273;28;20239;-84
2021/05/02 01:20:54;;;;;;;48.58;31.58;;;;;;;6.93;95.75;100326.34;5046395;28;20138;-84
2021/05/02 01:23:24;;;;;;;46.35;30.13;;;;;;;6.89;96.07;100321.31;5034599;28;20053;-84
2021/05/02 01:25:54;;;;;;;50.65;32.53;;;;;;;6.96;95.70;100320.97;5043232;28;20099;-84
2021/05/02 01:28:20;;;;;;;52.97;31.85;;;;;;;6.90;96.12;100321.28;5048503;28;20097;-82
2021/05/02 01:30:48;;;;;;;53.67;33.72;;;;;;;6.89;96.20;100309.13;5042665;28;20033;-83
2021/05/02 01:33:16;;;;;;;52.90;31.65;;;;;;;6.78;96.81;100308.78;5034212;28;20116;-84
2021/05/02 01:35:44;;;;;;;53.83;34.10;;;;;;;6.81;96.37;100308.63;5047935;28;20029;-86
2021/05/02 01:38:11;;;;;;;52.83;33.28;;;;;;;6.76;97.39;100314.09;5042504;28;20044;-84
2021/05/02 01:40:39;;;;;;;53.60;34.08;;;;;;;6.74;97.22;100318.53;5051061;28;20038;-84
2021/05/02 01:43:05;;;;;;;54.08;34.65;;;;;;;6.74;97.56;100322.91;5047260;28;20049;-85
2021/05/02 01:45:34;;;;;;;50.95;31.88;;;;;;;6.66;98.26;100320.66;5018211;28;20046;-84
2021/05/02 01:48:05;;;;;;;57.38;34.42;;;;;;;6.76;97.77;100321.09;5042650;28;20042;-86
2021/05/02 01:51:00;;;;;;;52.60;33.38;;;;;;;6.70;97.54;100324.81;5029602;28;20050;-85
2021/05/02 01:53:31;;;;;;;57.95;34.17;;;;;;;6.72;97.93;100319.53;5040617;28;20077;-85
2021/05/02 01:56:00;;;;;;;52.92;32.60;;;;;;;6.65;98.30;100312.91;5043969;28;20117;-85
2021/05/02 01:58:32;;;;;;;56.05;32.42;;;;;;;6.74;97.51;100310.69;5053018;28;20045;-85
2021/05/02 02:01:01;;;;;;;55.10;33.70;;;;;;;6.74;98.10;100307.22;5055627;28;20050;-83
2021/05/02 02:03:28;;;;;;;50.92;31.85;;;;;;;6.76;97.83;100308.84;5051436;28;20077;-85
2021/05/02 02:05:55;;;;;;;49.83;32.10;;;;;;;6.95;96.16;100318.44;5043368;28;20050;-84
2021/05/02 02:08:21;;;;;;;51.10;33.47;;;;;;;6.95;96.10;100314.03;5033526;28;20344;-84
2021/05/02 02:10:49;;;;;;;52.78;32.35;;;;;;;6.94;96.57;100301.88;5034907;28;20136;-85
2021/05/02 02:13:16;;;;;;;55.75;33.60;;;;;;;6.85;96.78;100304.94;5040192;28;20057;-83
2021/05/02 02:15:44;;;;;;;55.50;34.30;;;;;;;6.75;97.14;100296.66;5032784;28;20330;-84
2021/05/02 02:18:15;;;;;;;50.00;32.55;;;;;;;6.79;97.22;100298.22;5015321;28;20136;-84
2021/05/02 02:20:45;;;;;;;54.88;34.42;;;;;;;6.71;97.92;100297.78;5040410;28;20077;-84
2021/05/02 02:23:20;;;;;;;51.47;33.70;;;;;;;6.72;97.93;100286.38;5040458;28;20049;-83
2021/05/02 02:25:48;;;;;;;56.97;34.30;;;;;;;6.65;98.27;100287.59;5042053;28;20057;-85
2021/05/02 02:28:17;;;;;;;54.47;32.70;;;;;;;6.70;98.36;100285.59;5055855;28;20105;-85
2021/05/02 02:30:50;;;;;;;56.63;33.90;;;;;;;6.54;98.67;100295.09;5045227;28;20123;-83
2021/05/02 02:33:17;;;;;;;48.67;34.08;;;;;;;6.61;98.84;100288.66;5043763;28;20048;-84
2021/05/02 02:35:50;;;;;;;54.17;33.70;;;;;;;6.72;98.29;100286.38;5049321;28;20057;-84
2021/05/02 02:38:20;;;;;;;58.80;34.70;;;;;;;6.75;97.21;100286.22;5047960;28;20103;-83
2021/05/02 02:40:59;;;;;;;57.83;34.05;;;;;;;6.67;97.76;100290.16;5049352;28;20026;-83
2021/05/02 02:43:32;;;;;;;59.00;36.17;;;;;;;6.76;97.58;100285.31;5054813;22;20044;-71
2021/05/02 02:46:04;;;;;;;61.80;35.55;;;;;;;6.63;98.18;100285.97;5039169;28;20044;-73
2021/05/02 02:48:34;;;;;;;61.83;35.33;;;;;;;6.57;98.67;100274.91;5048667;28;20099;-72
2021/05/02 02:51:03;;;;;;;54.05;34.72;;;;;;;6.75;97.56;100278.34;5027331;28;20618;-71
2021/05/02 02:53:31;;;;;;;58.28;34.53;;;;;;;6.72;97.77;100273.28;5048897;28;20680;-71
2021/05/02 02:56:01;;;;;;;58.83;36.28;;;;;;;6.58;98.29;100279.19;5040156;28;20144;-71
2021/05/02 02:58:33;;;;;;;57.00;36.45;;;;;;;6.53;99.06;100281.19;5045852;28;20670;-72
2021/05/02 03:01:03;;;;;;;56.05;34.28;;;;;;;6.64;98.51;100285.06;5028682;28;20084;-72
2021/05/02 03:03:31;;;;;;;55.17;34.90;;;;;;;6.70;97.84;100284.75;5025551;28;20041;-72
2021/05/02 03:05:59;;;;;;;53.67;34.30;;;;;;;6.75;97.10;100282.75;5020156;28;20045;-71
2021/05/02 03:08:29;;;;;;;56.35;33.53;;;;;;;6.49;98.69;100284.88;5049621;28;20064;-71
2021/05/02 03:10:56;;;;;;;60.50;36.47;;;;;;;6.62;98.64;100285.13;5041508;28;20134;-71
2021/05/02 03:13:23;;;;;;;62.20;35.38;;;;;;;6.55;98.60;100292.41;5023898;28;20099;-72
2021/05/02 03:15:50;;;;;;;57.50;36.63;;;;;;;6.44;99.76;100286.84;5043319;28;20079;-72
2021/05/02 03:18:24;;;;;;;56.50;34.00;;;;;;;6.50;99.48;100294.41;5044505;28;20044;-72
2021/05/02 03:20:58;;;;;;;57.92;36.45;;;;;;;6.40;99.74;100294.91;5029673;28;20077;-71
2021/05/02 03:23:33;;;;;;;61.95;36.85;;;;;;;6.41;100.00;100291.38;5026819;28;20044;-73
2021/05/02 03:26:03;;;;;;;59.67;36.00;;;;;;;6.53;99.46;100293.41;5036451;28;20045;-71
2021/05/02 03:28:33;;;;;;;58.75;36.15;;;;;;;6.55;98.90;100295.03;5045026;28;20049;-72
2021/05/02 03:31:00;;;;;;;61.78;36.80;;;;;;;6.52;99.29;100296.94;5033168;28;20049;-71
2021/05/02 03:33:33;;;;;;;61.95;36.78;;;;;;;6.48;99.68;100296.22;5030240;28;20071;-71
2021/05/02 03:36:05;;;;;;;61.22;36.90;;;;;;;6.44;99.51;100294.69;5037930;28;20045;-73
2021/05/02 03:38:52;;;;;;;60.38;35.20;;;;;;;6.45;99.87;100293.78;5031786;28;20053;-73
2021/05/02 03:41:19;;;;;;;58.20;35.60;;;;;;;6.39;100.00;100295.81;5042977;28;20045;-72
2021/05/02 03:43:47;;;;;;;58.70;35.22;;;;;;;6.45;100.00;100303.38;5042416;28;20076;-72
2021/05/02 03:46:24;;;;;;;61.17;35.83;;;;;;;6.47;99.92;100296.31;5051374;28;20045;-70
2021/05/02 03:48:56;;;;;;;56.20;35.22;;;;;;;6.52;99.87;100289.09;5038122;28;20140;-71
2021/05/02 03:51:24;;;;;;;62.33;35.40;;;;;;;6.38;100.00;100289.75;5028100;28;20106;-72
2021/05/02 03:53:51;;;;;;;64.57;37.08;;;;;;;6.48;100.00;100296.22;5040182;28;20040;-74
2021/05/02 03:56:39;;;;;;;60.92;35.20;;;;;;;6.63;99.10;100299.91;5033121;28;20052;-72
2021/05/02 03:59:10;;;;;;;57.83;35.53;;;;;;;6.39;99.73;100295.81;5068405;28;20037;-72
2021/05/02 04:02:00;;;;;;;63.65;35.28;;;;;;;6.45;100.00;100298.16;5061949;28;20148;-72
2021/05/02 04:04:30;;;;;;;55.10;34.85;;;;;;;6.56;99.51;100294.09;5039268;28;20072;-72
2021/05/02 04:07:12;;;;;;;56.50;35.92;;;;;;;6.42;100.00;100300.91;5051585;28;20056;-72
2021/05/02 04:09:45;;;;;;;57.10;34.65;;;;;;;6.36;100.00;100306.44;5027084;28;20045;-73
2021/05/02 04:12:12;;;;;;;56.22;34.92;;;;;;;6.42;100.00;100295.69;5048181;28;20534;-73
2021/05/02 04:14:39;;;;;;;55.50;34.65;;;;;;;6.42;100.00;100290.44;5046623;28;20056;-72
2021/05/02 04:17:13;;;;;;;57.88;36.47;;;;;;;6.37;100.00;100300.28;5042328;28;20188;-72
2021/05/02 04:19:44;;;;;;;60.55;35.90;;;;;;;6.33;100.00;100300.41;5013471;28;20064;-71
2021/05/02 04:22:13;;;;;;;64.55;39.40;;;;;;;6.30;100.00;100304.94;5046784;28;20057;-72
2021/05/02 04:24:40;;;;;;;60.67;36.50;;;;;;;6.31;100.00;100294.41;5038705;28;20051;-72
2021/05/02 04:27:07;;;;;;;60.45;36.25;;;;;;;6.47;100.00;100299.75;5037405;28;20144;-72
2021/05/02 04:29:35;;;;;;;59.28;36.38;;;;;;;6.58;100.00;100300.13;5042988;28;20132;-72
2021/05/02 04:32:02;;;;;;;55.92;35.35;;;;;;;6.64;99.14;100298.97;5041549;28;20102;-72
2021/05/02 04:34:29;;;;;;;62.10;36.50;;;;;;;6.64;99.22;100296.34;5027192;28;20144;-72
2021/05/02 04:36:57;;;;;;;56.10;34.70;;;;;;;6.54;99.44;100300.34;5042236;28;20052;-72
2021/05/02 04:39:24;;;;;;;58.40;36.28;;;;;;;6.43;100.00;100297.38;5045513;28;20036;-73
2021/05/02 04:41:51;;;;;;;55.28;34.38;;;;;;;6.42;100.00;100301.75;5038021;28;20057;-71
2021/05/02 04:44:19;;;;;;;58.90;35.47;;;;;;;6.53;100.00;100296.03;5034873;28;20194;-73
2021/05/02 04:46:46;;;;;;;60.75;35.42;;;;;;;6.55;100.00;100291.56;5045276;28;20472;-72
2021/05/02 04:49:13;;;;;;;59.35;35.72;;;;;;;6.66;99.49;100294.50;5021642;28;20053;-72
2021/05/02 04:51:40;;;;;;;54.60;33.38;;;;;;;6.59;98.96;100288.72;5022936;28;20136;-72
2021/05/02 04:54:07;;;;;;;55.80;35.20;;;;;;;6.55;99.90;100289.78;5048937;28;20191;-71
2021/05/02 04:56:36;;;;;;;54.47;34.53;;;;;;;6.63;98.99;100283.38;5042419;28;20123;-70
2021/05/02 04:59:03;;;;;;;54.97;33.03;;;;;;;6.51;99.43;100288.25;5043615;28;20080;-71
2021/05/02 05:01:30;;;;;;;58.58;34.85;;;;;;;6.50;99.78;100285.72;5053303;28;20472;-71
2021/05/02 05:03:56;;;;;;;55.13;35.10;;;;;;;6.55;99.68;100286.34;5042523;28;20660;-73
2021/05/02 05:06:23;;;;;;;56.08;34.60;;;;;;;6.47;99.76;100284.06;5045000;28;20063;-71
2021/05/02 05:08:51;;;;;;;59.67;35.30;;;;;;;6.56;99.79;100286.25;5051650;28;20049;-72
2021/05/02 05:11:20;;;;;;;54.30;33.42;;;;;;;6.57;99.61;100282.75;5041060;28;20049;-71
2021/05/02 05:13:47;;;;;;;49.88;32.35;;;;;;;6.76;98.72;100281.84;5041967;28;20052;-72
2021/05/02 05:16:14;;;;;;;50.20;31.90;;;;;;;6.88;97.17;100286.47;5048006;28;20057;-72
2021/05/02 05:18:41;;;;;;;52.55;33.13;;;;;;;6.93;97.24;100275.78;5014848;28;20433;-73
2021/05/02 05:21:08;;;;;;;51.85;33.75;;;;;;;6.99;95.55;100278.94;5046054;28;20160;-71
2021/05/02 05:23:34;;;;;;;54.83;32.08;;;;;;;7.08;95.66;100270.63;5050003;28;20052;-72
2021/05/02 05:26:01;;;;;;;48.35;31.90;;;;;;;6.95;95.98;100276.56;5016454;28;20575;-71
2021/05/02 05:28:28;;;;;;;50.08;31.17;;;;;;;7.02;96.04;100276.16;5049870;28;20136;-72
2021/05/02 05:30:55;;;;;;;52.00;31.92;;;;;;;7.04;95.27;100270.88;5050548;28;20234;-74
2021/05/02 05:33:27;;;;;;;51.80;30.83;;;;;;;7.07;95.18;100273.34;5021556;28;20107;-72
2021/05/02 05:35:53;;;;;;;49.95;31.20;;;;;;;7.12;94.98;100281.81;5044374;28;20061;-71
2021/05/02 05:38:20;;;;;;;47.88;30.40;;;;;;;7.20;94.63;100276.16;5053496;28;20401;-72
2021/05/02 05:40:47;;;;;;;50.03;29.90;;;;;;;7.10;94.60;100284.47;5018161;28;20041;-72
2021/05/02 05:43:13;;;;;;;46.08;30.63;;;;;;;7.17;94.95;100282.41;5037222;28;20053;-72
2021/05/02 05:45:40;;;;;;;46.03;31.15;;;;;;;7.03;95.22;100284.88;5044241;28;20049;-73
2021/05/02 05:48:07;;;;;;;48.13;31.10;;;;;;;7.24;94.42;100278.53;5037030;28;20156;-72
2021/05/02 05:50:34;;;;;;;45.03;29.50;;;;;;;7.12;94.76;100287.03;5044964;28;20051;-71
2021/05/02 05:53:00;;;;;;;49.58;28.85;;;;;;;7.21;94.58;100286.56;5039356;28;20059;-72
2021/05/02 05:55:27;;;;;;;45.40;28.80;;;;;;;7.21;94.42;100286.56;5044337;28;20128;-71
2021/05/02 05:57:53;;;;;;;44.08;28.55;;;;;;;7.37;94.21;100291.88;5043955;28;20068;-73
2021/05/02 06:00:22;;;;;;;45.47;29.20;;;;;;;7.25;93.63;100297.72;5013351;28;20061;-72
2021/05/02 06:02:49;;;;;;;43.55;27.98;;;;;;;7.45;93.44;100294.94;5038636;28;20148;-72
2021/05/02 06:05:16;;;;;;;46.50;29.75;;;;;;;7.56;92.79;100300.47;5051484;28;20121;-73
2021/05/02 06:07:44;;;;;;;42.38;27.17;;;;;;;7.75;91.39;100303.00;5045796;28;20132;-71
2021/05/02 06:10:12;;;;;;;40.90;26.85;;;;;;;7.65;91.20;100306.16;5063482;28;20088;-72
2021/05/02 06:12:39;;;;;;;45.85;28.20;;;;;;;7.60;92.26;100307.25;5051717;28;20076;-73
2021/05/02 06:15:06;;;;;;;49.35;28.38;;;;;;;7.53;92.56;100310.28;5058443;28;20136;-71
2021/05/02 06:17:33;;;;;;;45.22;27.98;;;;;;;7.47;92.95;100311.41;5051564;28;20048;-71
2021/05/02 06:20:00;;;;;;;41.35;26.17;;;;;;;7.30;94.18;100307.06;5047583;28;20109;-73
2021/05/02 06:22:27;;;;;;;38.42;27.00;;;;;;;7.49;93.44;100313.97;5046130;28;20036;-72
2021/05/02 06:24:53;;;;;;;41.75;26.98;;;;;;;7.80;91.94;100318.47;5047319;28;20042;-72
2021/05/02 06:27:20;;;;;;;40.15;25.73;;;;;;;7.59;91.97;100323.06;5046901;28;20507;-72
2021/05/02 06:29:54;;;;;;;37.33;25.52;;;;;;;7.61;92.26;100326.47;5043327;28;20104;-72
2021/05/02 06:32:21;;;;;;;39.33;27.65;;;;;;;7.54;92.65;100325.91;5046597;28;20045;-71
2021/05/02 06:34:48;;;;;;;40.38;26.50;;;;;;;7.53;92.65;100328.63;5056948;28;20049;-72
2021/05/02 06:37:14;;;;;;;37.92;25.23;;;;;;;7.67;92.18;100327.91;5050776;28;20051;-73
2021/05/02 06:39:42;;;;;;;40.70;25.95;;;;;;;7.93;91.33;100331.78;5046401;28;20046;-72
2021/05/02 06:42:08;;;;;;;40.38;25.58;;;;;;;8.17;89.96;100334.88;5048746;28;20115;-71
2021/05/02 06:44:35;;;;;;;39.53;26.58;;;;;;;8.10;89.53;100348.31;5045964;28;20120;-73
2021/05/02 06:47:02;;;;;;;42.95;27.38;;;;;;;7.96;90.57;100345.56;5050882;28;20045;-73
2021/05/02 06:49:29;;;;;;;40.78;26.48;;;;;;;7.92;90.59;100344.03;5049283;28;20069;-76
2021/05/02 06:51:56;;;;;;;38.30;26.17;;;;;;;7.87;90.89;100356.53;5049098;28;20053;-73
2021/05/02 06:54:23;;;;;;;37.90;25.77;;;;;;;7.85;91.88;100355.78;5050403;28;20283;-77
2021/05/02 06:56:56;;;;;;;41.25;25.98;;;;;;;8.13;90.72;100355.16;5054846;28;20465;-74
2021/05/02 06:59:23;;;;;;;36.45;26.63;;;;;;;7.99;90.56;100357.69;5015121;28;20087;-76
2021/05/02 07:01:49;;;;;;;36.42;24.73;;;;;;;7.87;90.43;100351.28;5063754;28;20072;-76
2021/05/02 07:04:17;;;;;;;39.70;26.65;;;;;;;7.90;91.30;100356.38;5034874;28;20112;-76
2021/05/02 07:06:44;;;;;;;36.83;25.58;;;;;;;7.99;90.68;100355.06;5043469;28;20049;-75
2021/05/02 07:09:11;;;;;;;37.63;24.85;;;;;;;8.27;89.53;100351.81;5034335;28;20474;-77
2021/05/02 07:11:38;;;;;;;32.40;24.05;;;;;;;8.21;89.37;100352.16;5053894;28;20033;-76
2021/05/02 07:14:05;;;;;;;37.78;25.42;;;;;;;8.25;89.52;100353.69;5045433;28;20081;-73
2021/05/02 07:16:32;;;;;;;31.17;24.17;;;;;;;8.32;89.49;100350.63;5027268;28;20387;-74
2021/05/02 07:18:59;;;;;;;35.22;23.63;;;;;;;8.16;89.92;100351.56;5050156;28;20065;-75
2021/05/02 07:21:26;;;;;;;33.05;23.63;;;;;;;8.34;89.07;100361.91;5049575;28;20049;-73
2021/05/02 07:23:53;;;;;;;37.75;24.80;;;;;;;8.50;88.26;100361.09;5047433;28;20073;-76
2021/05/02 07:26:21;;;;;;;34.13;23.48;;;;;;;8.85;87.30;100359.16;5058672;28;20114;-73
2021/05/02 07:28:49;;;;;;;32.55;22.35;;;;;;;8.88;86.18;100365.06;5036897;28;20048;-77
2021/05/02 07:31:19;;;;;;;32.85;22.15;;;;;;;8.72;86.99;100363.38;5049589;28;20083;-73
2021/05/02 07:33:46;;;;;;;31.73;22.98;;;;;;;8.27;88.35;100367.53;5011560;28;20099;-76
2021/05/02 07:36:14;;;;;;;29.40;21.58;;;;;;;8.65;87.36;100357.63;5030979;28;20053;-75
2021/05/02 07:38:42;;;;;;;32.13;22.23;;;;;;;8.40;88.14;100366.00;5047837;28;20055;-75
2021/05/02 07:41:09;;;;;;;32.35;23.15;;;;;;;8.48;88.60;100361.19;5045363;28;20057;-74
2021/05/02 07:43:36;;;;;;;33.35;22.08;;;;;;;8.26;89.19;100369.31;5049715;28;20055;-74
2021/05/02 07:46:03;;;;;;;29.67;22.30;;;;;;;8.32;89.37;100373.38;5039561;28;20562;-74
2021/05/02 07:48:30;;;;;;;29.88;21.85;;;;;;;8.31;89.32;100377.78;5043628;28;20072;-77
2021/05/02 07:50:57;;;;;;;32.05;23.02;;;;;;;8.44;89.58;100375.38;5044799;28;20047;-75
2021/05/02 07:53:24;;;;;;;34.03;23.20;;;;;;;8.47;89.07;100377.00;5036890;28;20072;-76
2021/05/02 07:55:51;;;;;;;31.65;22.80;;;;;;;8.54;88.18;100378.34;5044389;28;20053;-75
2021/05/02 07:58:18;;;;;;;34.80;24.63;;;;;;;7.88;91.02;100376.59;5043482;28;20139;-75
2021/05/02 08:00:45;;;;;;;33.30;23.67;;;;;;;7.94;92.25;100372.81;5043177;28;20499;-76
2021/05/02 08:03:11;;;;;;;32.88;24.20;;;;;;;8.01;92.16;100374.16;5044779;28;20688;-72
2021/05/02 08:05:38;;;;;;;38.80;25.30;;;;;;;7.83;93.40;100371.59;5028801;28;20107;-75
2021/05/02 08:08:05;;;;;;;34.80;26.15;;;;;;;7.92;94.45;100378.09;5051253;28;20542;-75
2021/05/02 08:10:32;;;;;;;34.90;26.20;;;;;;;7.75;95.22;100380.78;5047953;28;20041;-76
2021/05/02 08:12:59;;;;;;;36.97;26.08;;;;;;;7.66;95.69;100378.63;5047493;28;20041;-77
2021/05/02 08:15:27;;;;;;;36.95;26.58;;;;;;;7.77;96.40;100381.53;5034860;28;20410;-77
2021/05/02 08:17:56;;;;;;;38.00;26.58;;;;;;;7.94;96.32;100378.88;5032907;28;20049;-77
2021/05/02 08:20:24;;;;;;;38.30;27.80;;;;;;;7.88;96.42;100384.47;5038970;28;20550;-77
2021/05/02 08:22:50;;;;;;;42.45;27.10;;;;;;;7.88;96.95;100379.22;5058415;28;20043;-78
2021/05/02 08:25:17;;;;;;;39.10;26.88;;;;;;;8.22;95.71;100387.91;5068001;28;20097;-73
2021/05/02 08:27:44;;;;;;;38.95;26.58;;;;;;;8.03;96.43;100391.50;5064815;28;20060;-74
2021/05/02 08:30:11;;;;;;;37.78;26.90;;;;;;;8.03;97.13;100391.50;5039381;28;20064;-74
2021/05/02 08:32:38;;;;;;;36.70;27.63;;;;;;;8.22;97.27;100390.53;5042344;28;20132;-74
2021/05/02 08:35:06;;;;;;;37.15;26.85;;;;;;;8.10;96.51;100392.03;5044433;28;20071;-73
2021/05/02 08:37:32;;;;;;;36.25;25.45;;;;;;;8.35;95.00;100384.56;5032972;28;20053;-74
2021/05/02 08:39:59;;;;;;;36.88;26.95;;;;;;;8.09;96.25;100387.72;5037939;28;20052;-74
2021/05/02 08:42:26;;;;;;;38.60;26.83;;;;;;;7.94;97.58;100381.50;5040985;28;20091;-75
2021/05/02 08:44:53;;;;;;;37.90;27.40;;;;;;;8.21;96.29;100388.84;5042560;28;20059;-73
2021/05/02 08:47:20;;;;;;;38.88;27.65;;;;;;;8.29;97.10;100381.44;5048872;28;20055;-74
2021/05/02 08:49:46;;;;;;;40.33;27.73;;;;;;;8.61;95.47;100384.97;5037022;28;20072;-73
2021/05/02 08:52:13;;;;;;;35.25;27.83;;;;;;;8.75;95.04;100382.44;5043380;28;20127;-73
2021/05/02 08:54:40;;;;;;;40.30;27.30;;;;;;;8.75;94.36;100390.31;5045180;28;20051;-76
2021/05/02 08:57:07;;;;;;;36.55;25.45;;;;;;;8.71;93.66;100387.94;5028397;28;20136;-75
2021/05/02 08:59:34;;;;;;;35.17;27.15;;;;;;;8.58;94.84;100385.97;5043215;28;20467;-76
2021/05/02 09:02:01;;;;;;;39.08;26.45;;;;;;;8.53;95.11;100385.38;5036520;28;20144;-73
2021/05/02 09:04:27;;;;;;;38.80;29.05;;;;;;;8.33;97.10;100386.44;5058064;22;20444;-69
2021/05/02 09:06:54;;;;;;;40.92;30.13;;;;;;;8.26;97.45;100384.22;5060264;28;20109;-68
2021/05/02 09:09:21;;;;;;;38.42;28.23;;;;;;;8.39;97.25;100381.81;5045061;28;20061;-70
2021/05/02 09:11:49;;;;;;;37.75;27.23;;;;;;;8.59;96.43;100386.81;5047596;28;20387;-70
2021/05/02 09:14:16;;;;;;;42.47;28.63;;;;;;;8.79;97.40;100385.75;5043308;28;20472;-69
2021/05/02 09:16:47;;;;;;;36.45;27.42;;;;;;;8.97;96.29;100389.13;5037318;28;20068;-69
2021/05/02 09:19:15;;;;;;;39.78;28.05;;;;;;;8.80;96.46;100383.03;5040870;28;20131;-69
2021/05/02 09:21:42;;;;;;;40.03;30.20;;;;;;;9.03;95.78;100383.53;5039255;28;20068;-69
2021/05/02 09:24:31;;;;;;;37.42;28.42;;;;;;;9.37;93.87;100380.69;5060108;28;20577;-69
2021/05/02 09:27:06;;;;;;;37.47;28.05;;;;;;;9.92;92.04;100371.31;5044029;28;20045;-68
2021/05/02 09:29:35;;;;;;;37.50;28.13;;;;;;;10.11;89.50;100374.50;5042590;28;20137;-68
2021/05/02 09:32:03;;;;;;;37.83;28.10;;;;;;;10.47;88.58;100372.38;5036572;28;20124;-70
2021/05/02 09:34:30;;;;;;;36.17;26.35;;;;;;;10.70;85.98;100376.19;5039117;28;20053;-68
2021/05/02 09:37:02;;;;;;;37.50;25.75;;;;;;;10.04;86.43;100373.22;5039008;28;20057;-69
2021/05/02 09:39:53;;;;;;;32.88;24.58;;;;;;;10.30;85.23;100374.25;5049210;28;20048;-69
2021/05/02 09:42:24;;;;;;;36.80;25.55;;;;;;;9.85;87.88;100375.22;5043045;28;20135;-67
2021/05/02 09:45:13;;;;;;;35.25;25.65;;;;;;;10.38;86.56;100376.41;5034516;28;20092;-69
2021/05/02 09:47:42;;;;;;;36.13;25.45;;;;;;;10.02;86.44;100382.13;5041587;28;20059;-68
2021/05/02 09:50:20;;;;;;;33.58;26.33;;;;;;;10.08;87.12;100381.72;5042845;28;20504;-69
2021/05/02 09:53:05;;;;;;;33.10;26.38;;;;;;;10.56;85.57;100385.78;5033289;28;20526;-69
2021/05/02 09:55:33;;;;;;;28.10;22.65;;;;;;;10.63;82.73;100381.84;5046593;28;20045;-68
2021/05/02 09:58:12;;;;;;;33.42;25.48;;;;;;;10.79;83.62;100388.75;5037667;28;20049;-69
2021/05/02 10:00:42;;;;;;;34.13;24.05;;;;;;;9.59;87.37;100388.16;5041552;28;20049;-69
2021/05/02 10:03:13;;;;;;;35.25;23.88;;;;;;;9.78;87.20;100382.66;5046741;28;20535;-68
2021/05/02 10:05:58;;;;;;;36.20;26.10;;;;;;;10.13;86.83;100388.44;5027887;28;20045;-70
2021/05/02 10:08:27;;;;;;;32.67;23.05;;;;;;;10.18;85.92;100395.16;5042300;28;20120;-70
2021/05/02 10:10:55;;;;;;;31.90;24.02;;;;;;;10.09;85.07;100392.19;5046378;28;20036;-69
2021/05/02 10:13:22;;;;;;;32.22;23.15;;;;;;;10.09;86.24;100394.81;5046439;28;20418;-68
2021/05/02 10:15:48;;;;;;;29.25;22.23;;;;;;;10.30;83.39;100394.47;5038734;28;20067;-68
2021/05/02 10:18:15;;;;;;;30.90;22.48;;;;;;;10.19;83.17;100396.88;5049488;28;20048;-68
2021/05/02 10:20:47;;;;;;;28.40;22.42;;;;;;;10.37;82.12;100394.00;5023345;28;20041;-69
2021/05/02 10:23:14;;;;;;;28.48;22.58;;;;;;;10.51;81.16;100393.13;5048868;28;20139;-69
2021/05/02 10:25:42;;;;;;;29.55;23.45;;;;;;;10.37;82.69;100391.38;5046484;28;20049;-68
2021/05/02 10:28:23;;;;;;;32.25;24.13;;;;;;;10.29;81.67;100398.03;5054319;28;20117;-70
2021/05/02 10:30:51;;;;;;;28.63;22.70;;;;;;;10.80;80.19;100390.44;5026478;28;20049;-67
2021/05/02 10:33:41;;;;;;;28.55;23.35;;;;;;;11.18;79.85;100387.16;5048841;28;20053;-68
2021/05/02 10:36:16;;;;;;;30.27;23.08;;;;;;;10.86;78.02;100390.91;5054814;28;20049;-69
2021/05/02 10:38:44;;;;;;;28.23;21.33;;;;;;;10.81;78.61;100398.28;5025977;28;20041;-70
2021/05/02 10:41:29;;;;;;;30.05;20.30;;;;;;;10.85;78.86;100391.88;5044228;28;20045;-70
2021/05/02 10:44:07;;;;;;;25.95;20.00;;;;;;;10.98;78.47;100391.91;5045722;28;20061;-69
2021/05/02 10:46:53;;;;;;;27.77;20.10;;;;;;;11.54;77.07;100392.63;5044001;28;20057;-67
2021/05/02 10:49:19;;;;;;;25.35;19.77;;;;;;;11.83;74.89;100398.59;5049140;28;20124;-68
2021/05/02 10:51:50;;;;;;;21.77;17.70;;;;;;;11.86;73.55;100397.56;5043292;28;20073;-69
2021/05/02 10:54:19;;;;;;;24.55;18.80;;;;;;;12.08;73.44;100391.69;5057221;28;20072;-70
2021/05/02 10:56:56;;;;;;;24.42;20.52;;;;;;;11.97;74.19;100402.94;5053675;28;20049;-70
2021/05/02 10:59:25;;;;;;;23.65;18.52;;;;;;;11.70;74.44;100404.78;5056941;28;20124;-69
2021/05/02 11:01:54;;;;;;;22.42;18.30;;;;;;;11.69;74.11;100408.38;5042761;28;20048;-71
2021/05/02 11:04:21;;;;;;;27.25;19.08;;;;;;;11.58;74.84;100411.75;5062608;28;20048;-70
2021/05/02 11:06:53;;;;;;;24.70;19.17;;;;;;;11.30;73.94;100404.78;5041125;28;20613;-68
2021/05/02 11:09:21;;;;;;;21.40;16.52;;;;;;;11.55;73.01;100407.50;5044124;28;20589;-69
2021/05/02 11:11:54;;;;;;;23.98;17.48;;;;;;;11.62;73.42;100410.59;5040255;28;20049;-70
2021/05/02 11:14:21;;;;;;;26.30;17.77;;;;;;;11.64;74.21;100414.78;5041680;28;20146;-69
2021/05/02 11:16:49;;;;;;;24.00;17.77;;;;;;;11.88;73.64;100414.13;5026984;28;20041;-69
2021/05/02 11:19:23;;;;;;;24.58;18.73;;;;;;;11.79;73.13;100410.28;5036875;28;20397;-69
2021/05/02 11:21:55;;;;;;;24.85;18.30;;;;;;;11.76;72.32;100413.16;5042473;28;20729;-68
2021/05/02 11:24:23;;;;;;;26.13;17.75;;;;;;;11.77;71.31;100411.34;5037737;28;20045;-69
2021/05/02 11:27:01;;;;;;;24.42;17.88;;;;;;;12.03;70.99;100413.09;5042081;28;20057;-69